LEZG/ZAZ METAR and TAF weather

Enter ICAO airport designator
Station Type Date Time Source
LEZG METAR 2021/10/20 07:30 UTC NOAA

LEZG 200730Z 11004KT 080V150 6000 FEW003 15/14 Q1023


Station Type Date Time Source
LEZG Decoded METAR 2021/10/20 07:30 UTC NOAA

Zaragoza / Aeropuerto, Spain (LEZG) 41-40N 001-01W 258M
Oct 20, 2021 - 03:30 AM EDT / 2021.10.20 0730 UTC
Wind: from the ESE (110 degrees) at 5 MPH (4 KT) (direction variable):0
Visibility: 3 mile(s):0
Sky conditions: mostly clear
Temperature: 59 F (15 C)
Dew Point: 57 F (14 C)
Relative Humidity: 93%
Pressure (altimeter): 30.21 in. Hg (1023 hPa)
ob: LEZG 200730Z 11004KT 080V150 6000 FEW003 15/14 Q1023
cycle: 7

Station Type Date Time Source
LEZG TAF 2021/10/20 06:27 UTC NOAA

TAF TAF LEZG 200500Z 2006/2106 11007KT CAVOK TX26/2014Z TN14/2006Z PROB30
TEMPO 2006/2007 3000 BR BKN005
TEMPO 2019/2023 23010KT
BECMG 2103/2105 29010KT

Example: see airport list